Richland Springs, Texas
Current Conditions -  °F | °C
As of 8:35 PM on Friday 31 Oct 2014 (Local Time) from KBBD Reporting Station
Clear Clear  
Wind Chill: 57°   Ceiling: Unl
Heat Index: 57°   Visibility: 10mi
Dew Point: 32°   Wind: 8mph
Humidity: 38%   Direction: 20°NNE
Pressure: 30.32"   Gusts: NA
Location:  31.27°N, 98.95°W
Report Text: KBBD 010135Z AUTO 02007KT 10SM CLR 14/00 A3032 RMK
Loading
Personal Weather Stations






























Interactive Weather Map
Tropical Storm Tracking
New forecast layout! Learn more

10-Day Weather Forecast

Advertisements
Track Severe Weather on mobile